createdAt,value
2019-04-06T00:00:08.177Z,19.10
2019-04-06T00:02:38.652Z,18.45
2019-04-06T00:05:08.511Z,20.20
2019-04-06T00:07:37.489Z,18.37
2019-04-06T00:10:07.367Z,18.98
2019-04-06T00:12:36.322Z,18.57
2019-04-06T00:15:07.077Z,17.00
2019-04-06T00:17:36.832Z,18.77
2019-04-06T00:20:07.310Z,18.80
2019-04-06T00:22:36.251Z,18.07
2019-04-06T00:25:06.977Z,17.45
2019-04-06T00:27:35.984Z,16.50
2019-04-06T00:30:09.705Z,17.40
2019-04-06T00:32:43.393Z,15.63
2019-04-06T00:35:14.177Z,15.28
2019-04-06T00:37:43.202Z,14.87
2019-04-06T00:40:12.307Z,13.75
2019-04-06T00:42:42.847Z,13.90
2019-04-06T00:45:13.670Z,14.63
2019-04-06T00:47:42.643Z,14.28
2019-04-06T00:50:12.156Z,13.90
2019-04-06T00:52:41.166Z,14.40
2019-04-06T00:55:10.111Z,13.32
2019-04-06T00:57:39.084Z,13.40
2019-04-06T01:00:08.600Z,13.65
2019-04-06T01:02:37.639Z,13.60
2019-04-06T01:05:07.951Z,12.37
2019-04-06T01:07:38.487Z,12.53
2019-04-06T01:10:07.503Z,11.93
2019-04-06T01:12:36.484Z,12.47
2019-04-06T01:15:07.072Z,12.43
2019-04-06T01:17:38.370Z,12.53
2019-04-06T01:20:07.470Z,11.90
2019-04-06T01:22:36.504Z,13.15
2019-04-06T01:25:09.146Z,13.10
2019-04-06T01:27:38.188Z,12.50
2019-04-06T01:30:08.740Z,12.68
2019-04-06T01:32:37.769Z,12.68
2019-04-06T01:35:09.482Z,12.45
2019-04-06T01:37:38.460Z,11.48
2019-04-06T01:40:07.715Z,11.15
2019-04-06T01:42:38.178Z,11.25
2019-04-06T01:45:07.701Z,10.72
2019-04-06T01:47:36.751Z,12.10
2019-04-06T01:50:06.538Z,12.23
2019-04-06T01:52:35.529Z,12.05
2019-04-06T01:55:04.939Z,11.30
2019-04-06T01:57:33.894Z,12.13
2019-04-06T02:00:02.867Z,12.30
2019-04-06T02:02:36.271Z,12.63
2019-04-06T02:05:07.874Z,11.63
2019-04-06T02:07:36.907Z,13.20
2019-04-06T02:10:07.651Z,12.53
2019-04-06T02:12:39.496Z,12.07
2019-04-06T02:15:08.911Z,13.05
2019-04-06T02:17:39.212Z,12.55
2019-04-06T02:20:10.012Z,13.05
2019-04-06T02:22:40.236Z,13.60
2019-04-06T02:25:09.162Z,13.95
2019-04-06T02:27:38.133Z,14.90
2019-04-06T02:30:11.234Z,14.70
2019-04-06T02:32:41.941Z,16.55
2019-04-06T02:35:28.596Z,15.70
2019-04-06T02:38:15.439Z,17.55
2019-04-06T02:41:00.255Z,17.35
2019-04-06T02:43:34.804Z,18.27
2019-04-06T02:46:03.850Z,18.12
2019-04-06T02:48:34.293Z,19.70
2019-04-06T02:51:03.266Z,20.75
2019-04-06T02:53:32.304Z,18.50
2019-04-06T02:56:01.209Z,18.92
2019-04-06T02:58:30.106Z,22.15
2019-04-06T03:00:58.986Z,18.85
2019-04-06T03:03:46.666Z,21.97
2019-04-06T03:06:15.573Z,20.90
2019-04-06T03:08:44.497Z,21.60
2019-04-06T03:11:13.461Z,22.02
2019-04-06T03:13:44.069Z,22.20
2019-04-06T03:16:15.991Z,20.72
2019-04-06T03:18:44.932Z,21.62
2019-04-06T03:21:14.167Z,21.70
2019-04-06T03:23:50.376Z,22.65
2019-04-06T03:26:13.752Z,22.67
2019-04-06T03:28:42.682Z,22.90
2019-04-06T03:31:22.785Z,22.22
2019-04-06T03:33:47.694Z,23.83
2019-04-06T03:36:16.712Z,21.85
2019-04-06T03:38:45.749Z,22.98
2019-04-06T03:41:14.787Z,23.35
2019-04-06T03:43:43.695Z,22.85
2019-04-06T03:46:12.674Z,23.75
2019-04-06T03:48:41.695Z,23.30
2019-04-06T03:51:12.236Z,24.15
2019-04-06T03:53:41.237Z,22.75
2019-04-06T03:56:11.962Z,22.95
2019-04-06T03:58:42.660Z,22.87
2019-04-06T04:01:11.592Z,25.05
2019-04-06T04:03:40.677Z,23.07
2019-04-06T04:06:09.673Z,23.55
2019-04-06T04:08:42.370Z,23.02
2019-04-06T04:11:13.971Z,24.70
2019-04-06T04:13:44.456Z,23.70
2019-04-06T04:16:19.611Z,24.55
2019-04-06T04:18:51.137Z,23.70
2019-04-06T04:21:21.640Z,25.40
2019-04-06T04:23:50.738Z,24.47
2019-04-06T04:26:19.862Z,25.15
2019-04-06T04:28:48.906Z,25.88
2019-04-06T04:31:20.850Z,23.85
2019-04-06T04:33:50.006Z,23.75
2019-04-06T04:36:19.219Z,23.30
2019-04-06T04:38:51.054Z,23.00
2019-04-06T04:41:20.141Z,24.30
2019-04-06T04:43:52.124Z,23.62
2019-04-06T04:46:23.118Z,22.80
2019-04-06T04:48:51.728Z,23.77
2019-04-06T04:51:20.692Z,23.00
2019-04-06T04:53:49.677Z,21.90
2019-04-06T04:56:18.908Z,23.90
2019-04-06T04:58:48.019Z,24.45
2019-04-06T05:01:18.570Z,24.55
2019-04-06T05:03:49.144Z,25.25
2019-04-06T05:06:18.248Z,24.02
2019-04-06T05:08:47.537Z,23.83
2019-04-06T05:11:16.548Z,23.30
2019-04-06T05:13:46.905Z,23.90
2019-04-06T05:16:17.389Z,24.30
2019-04-06T05:18:46.345Z,23.75
2019-04-06T05:21:16.604Z,21.60
2019-04-06T05:23:45.544Z,22.15
2019-04-06T05:26:14.542Z,22.30
2019-04-06T05:48:50.229Z,20.40
2019-04-06T05:52:25.419Z,18.60
2019-04-06T05:54:58.887Z,19.37
2019-04-06T05:57:31.610Z,18.35
2019-04-06T05:59:58.562Z,18.42
2019-04-06T06:02:27.538Z,17.92
2019-04-06T06:04:56.534Z,18.23
2019-04-06T06:07:25.545Z,18.30
2019-04-06T06:09:55.454Z,16.80
2019-04-06T06:12:25.880Z,17.98
2019-04-06T06:14:54.880Z,17.73
2019-04-06T06:17:26.688Z,17.70
2019-04-06T06:19:59.604Z,15.45
2019-04-06T06:22:27.881Z,16.97
2019-04-06T06:24:56.929Z,15.63
2019-04-06T06:27:27.548Z,14.63
2019-04-06T06:29:56.539Z,15.80
2019-04-06T06:32:25.488Z,15.70
2019-04-06T06:34:54.446Z,14.40
2019-04-06T06:37:23.435Z,16.27
2019-04-06T06:39:52.379Z,15.05
2019-04-06T06:42:21.305Z,16.00
2019-04-06T06:44:50.206Z,16.85
2019-04-06T06:47:19.135Z,16.67
2019-04-06T06:49:55.585Z,16.75
2019-04-06T06:52:24.711Z,16.97
2019-04-06T06:54:53.622Z,17.82
2019-04-06T06:57:32.085Z,18.32
2019-04-06T07:00:06.788Z,12.80
2019-04-06T07:02:34.539Z,18.30
2019-04-06T07:05:18.202Z,18.73
2019-04-06T07:07:47.487Z,18.70
2019-04-06T07:10:16.478Z,20.15
2019-04-06T07:12:45.358Z,18.00
2019-04-06T07:15:18.015Z,19.42
2019-04-06T07:17:50.013Z,20.75
2019-04-06T07:20:36.956Z,20.23
2019-04-06T07:23:10.653Z,20.48
2019-04-06T07:25:43.997Z,21.70
2019-04-06T07:41:10.652Z,22.10
2019-04-06T07:56:55.729Z,20.55
2019-04-06T08:15:55.351Z,21.33
2019-04-06T08:21:28.553Z,21.80
2019-04-06T08:23:57.549Z,21.10
2019-04-06T08:26:46.938Z,22.02
2019-04-06T08:29:15.955Z,21.35
2019-04-06T08:31:47.908Z,22.58
2019-04-06T08:34:17.924Z,22.90
2019-04-06T08:36:46.920Z,19.77
2019-04-06T08:39:15.933Z,19.35
2019-04-06T08:41:45.442Z,21.70
2019-04-06T08:44:14.505Z,21.62
2019-04-06T08:46:43.508Z,19.98
2019-04-06T08:49:12.970Z,21.73
2019-04-06T08:51:45.502Z,21.15
2019-04-06T08:54:15.913Z,20.23
2019-04-06T08:59:58.464Z,20.12
2019-04-06T09:08:38.463Z,14.98
2019-04-06T09:11:07.440Z,17.00
2019-04-06T09:13:36.333Z,16.60
2019-04-06T09:16:05.553Z,16.75
2019-04-06T09:18:58.739Z,19.05
2019-04-06T09:27:47.924Z,13.93
2019-04-06T09:31:24.524Z,16.70
2019-04-06T09:33:10.786Z,15.93
2019-04-06T09:35:48.995Z,16.62
2019-04-06T10:49:57.675Z,13.50
2019-04-06T10:52:34.055Z,10.93
2019-04-06T10:55:07.056Z,10.10
2019-04-06T10:58:02.528Z,13.35
2019-04-06T11:03:53.599Z,12.35
2019-04-06T11:06:59.090Z,11.80
2019-04-06T11:09:32.552Z,13.83
2019-04-06T11:12:19.383Z,14.47
2019-04-06T11:14:56.858Z,14.05
2019-04-06T11:17:54.011Z,14.07
2019-04-06T11:20:46.813Z,16.45
2019-04-06T11:23:46.082Z,12.53
2019-04-06T11:26:44.383Z,13.03
2019-04-06T11:29:23.516Z,14.15
2019-04-06T11:32:19.626Z,15.32
2019-04-06T11:48:41.259Z,13.78
2019-04-06T11:51:23.996Z,14.23
2019-04-06T11:54:25.525Z,14.93
2019-04-06T11:57:21.354Z,15.15
2019-04-06T11:59:47.536Z,15.03
2019-04-06T12:02:32.285Z,12.95
2019-04-06T12:05:10.212Z,13.53
2019-04-06T12:08:37.682Z,15.10
2019-04-06T12:14:28.836Z,12.35
2019-04-06T12:20:13.182Z,13.30
2019-04-06T12:22:45.615Z,12.60
2019-04-06T12:25:25.235Z,10.75
2019-04-06T12:27:59.820Z,11.08
2019-04-06T12:30:48.153Z,12.15
2019-04-06T12:33:20.312Z,12.07
2019-04-06T12:36:00.207Z,12.13
2019-04-06T12:38:41.175Z,12.73
2019-04-06T12:41:13.432Z,12.23
2019-04-06T12:44:02.522Z,11.63
2019-04-06T12:46:35.784Z,9.15
2019-04-06T12:49:06.465Z,13.10
2019-04-06T12:51:55.584Z,12.03
2019-04-06T12:54:26.145Z,12.33
2019-04-06T12:57:08.771Z,12.55
2019-04-06T12:59:43.043Z,11.12
2019-04-06T13:02:19.778Z,12.78
2019-04-06T13:04:51.663Z,12.13
2019-04-06T13:07:32.782Z,13.32
2019-04-06T13:10:09.314Z,12.07
2019-04-06T13:12:41.245Z,12.00
2019-04-06T13:15:21.000Z,12.70
2019-04-06T13:18:02.004Z,13.05
2019-04-06T13:20:50.609Z,9.30
2019-04-06T13:23:24.147Z,10.93
2019-04-06T13:25:59.173Z,10.30
2019-04-06T13:28:36.090Z,10.48
2019-04-06T13:31:15.417Z,12.03
2019-04-06T13:33:51.683Z,8.63
2019-04-06T13:36:26.380Z,12.80
2019-04-06T13:41:54.116Z,12.30
2019-04-06T13:44:30.259Z,9.00
2019-04-06T13:47:40.320Z,12.40
2019-04-06T13:55:57.247Z,13.50
2019-04-06T13:58:59.641Z,12.03
2019-04-06T14:02:06.922Z,11.63
2019-04-06T14:08:26.118Z,11.78
2019-04-06T14:10:17.120Z,11.15
2019-04-06T14:12:53.532Z,11.45
2019-04-06T14:16:01.481Z,12.98
2019-04-06T14:19:12.244Z,12.75
2019-04-06T14:21:47.509Z,11.68
2019-04-06T14:24:37.399Z,11.48
2019-04-06T14:27:22.576Z,11.05
2019-04-06T14:30:58.789Z,14.55
2019-04-06T14:33:34.960Z,13.03
2019-04-06T14:46:39.717Z,9.28
2019-04-06T14:52:37.299Z,11.90
2019-04-06T14:58:47.209Z,11.08
2019-04-06T15:01:54.725Z,12.50
2019-04-06T15:04:09.588Z,12.93
2019-04-06T15:07:10.716Z,14.25
2019-04-06T15:12:44.925Z,13.48
2019-04-06T15:17:11.259Z,12.18
2019-04-06T15:26:07.579Z,14.55
2019-04-06T15:40:49.826Z,8.13
2019-04-06T15:43:36.174Z,9.33
2019-04-06T15:46:17.755Z,8.93
2019-04-06T15:56:10.347Z,8.53
2019-04-06T16:02:40.762Z,10.28
2019-04-06T16:05:08.988Z,10.53
2019-04-06T16:07:56.025Z,8.43
2019-04-06T16:14:47.671Z,7.33
2019-04-06T16:27:21.395Z,10.53
2019-04-06T16:30:17.819Z,6.97
2019-04-06T16:42:29.816Z,8.13
2019-04-06T17:00:28.522Z,9.60
2019-04-06T17:02:59.850Z,10.32
2019-04-06T17:05:30.415Z,10.65
2019-04-06T17:08:10.814Z,6.70
2019-04-06T17:10:35.516Z,8.35
2019-04-06T17:13:12.366Z,8.90
2019-04-06T17:15:45.996Z,11.63
2019-04-06T17:18:32.704Z,10.68
2019-04-06T17:21:14.999Z,11.25
2019-04-06T17:23:45.563Z,12.07
2019-04-06T17:26:25.666Z,13.60
2019-04-06T17:28:56.578Z,11.78
2019-04-06T17:31:44.800Z,14.07
2019-04-06T17:34:19.265Z,12.82
2019-04-06T17:36:50.044Z,14.83
2019-04-06T17:39:20.590Z,13.05
2019-04-06T17:42:08.981Z,13.13
2019-04-06T17:44:41.953Z,13.60
2019-04-06T17:47:21.220Z,12.65
2019-04-06T17:50:07.656Z,12.98
2019-04-06T17:52:38.434Z,15.35
2019-04-06T17:55:21.380Z,16.00
2019-04-06T17:57:54.771Z,17.55
2019-04-06T18:00:37.131Z,13.90
2019-04-06T18:03:13.460Z,14.95
2019-04-06T18:06:00.349Z,14.93
2019-04-06T18:08:47.301Z,15.05
2019-04-06T18:11:18.203Z,15.65
2019-04-06T18:13:49.990Z,17.48
2019-04-06T18:16:23.461Z,14.55
2019-04-06T18:19:12.489Z,18.07
2019-04-06T18:21:41.418Z,14.18
2019-04-06T18:24:10.197Z,13.70
2019-04-06T18:26:39.050Z,15.25
2019-04-06T18:29:07.891Z,12.45
2019-04-06T18:31:40.865Z,15.30
2019-04-06T18:34:09.663Z,16.17
2019-04-06T18:36:42.681Z,16.20
2019-04-06T18:39:12.739Z,12.60
2019-04-06T18:41:41.422Z,14.98
2019-04-06T18:44:10.216Z,17.95
2019-04-06T18:46:39.389Z,17.20
2019-04-06T18:49:08.201Z,17.73
2019-04-06T18:51:37.288Z,16.02
2019-04-06T18:54:08.361Z,15.88
2019-04-06T18:56:36.974Z,16.52
2019-04-06T18:59:06.138Z,16.23
2019-04-06T19:01:35.996Z,14.65
2019-04-06T19:04:04.826Z,16.85
2019-04-06T19:06:33.810Z,15.88
2019-04-06T19:09:02.713Z,16.50
2019-04-06T19:11:31.508Z,13.93
2019-04-06T19:14:00.279Z,17.17
2019-04-06T19:16:29.542Z,17.05
2019-04-06T19:18:58.432Z,17.12
2019-04-06T19:21:27.438Z,16.42
2019-04-06T19:23:56.364Z,15.38
2019-04-06T19:26:25.370Z,15.55
2019-04-06T19:28:54.120Z,16.73
2019-04-06T19:31:22.957Z,16.37
2019-04-06T19:33:52.189Z,15.98
2019-04-06T19:36:21.415Z,16.50
2019-04-06T19:38:50.311Z,16.42
2019-04-06T19:41:19.127Z,16.67
2019-04-06T19:43:48.853Z,16.07
2019-04-06T19:46:17.882Z,15.40
2019-04-06T19:48:47.003Z,15.35
2019-04-06T19:51:15.981Z,15.45
2019-04-06T19:53:44.810Z,15.65
2019-04-06T19:56:13.614Z,15.08
2019-04-06T19:58:42.618Z,15.78
2019-04-06T20:01:11.461Z,15.38
2019-04-06T20:03:40.247Z,16.30
2019-04-06T20:06:09.071Z,15.00
2019-04-06T20:08:38.398Z,14.93
2019-04-06T20:11:07.409Z,15.60
2019-04-06T20:13:36.179Z,16.27
2019-04-06T20:16:07.933Z,14.87
2019-04-06T20:18:36.849Z,15.20
2019-04-06T20:21:06.064Z,14.78
2019-04-06T20:23:36.457Z,16.45
2019-04-06T20:26:05.750Z,17.50
2019-04-06T20:28:35.370Z,17.27
2019-04-06T20:31:04.816Z,17.23
2019-04-06T20:33:35.023Z,16.55
2019-04-06T20:36:04.701Z,16.55
2019-04-06T20:38:34.064Z,17.70
2019-04-06T20:41:03.015Z,17.05
2019-04-06T20:43:31.932Z,17.70
2019-04-06T20:46:00.922Z,16.97
2019-04-06T20:48:29.717Z,16.75
2019-04-06T20:50:58.471Z,17.52
2019-04-06T20:53:27.675Z,18.50
2019-04-06T20:55:56.634Z,17.55
2019-04-06T20:58:25.931Z,17.62
2019-04-06T21:00:54.829Z,16.60
2019-04-06T21:03:23.586Z,17.73
2019-04-06T21:05:53.305Z,17.70
2019-04-06T21:08:22.489Z,16.57
2019-04-06T21:10:52.106Z,16.57
2019-04-06T21:13:21.234Z,16.27
2019-04-06T21:15:51.054Z,16.60
2019-04-06T21:18:19.885Z,17.52
2019-04-06T21:20:48.680Z,17.73
2019-04-06T21:23:17.362Z,18.20
2019-04-06T21:25:46.507Z,15.88
2019-04-06T21:28:15.466Z,16.17
2019-04-06T21:30:44.376Z,16.20
2019-04-06T21:33:13.248Z,16.62
2019-04-06T21:35:43.497Z,16.15
2019-04-06T21:38:12.409Z,14.78
2019-04-06T21:40:41.270Z,16.65
2019-04-06T21:43:10.085Z,17.80
2019-04-06T21:45:39.333Z,17.45
2019-04-06T21:48:09.461Z,18.23
2019-04-06T21:50:38.631Z,16.93
2019-04-06T21:53:07.525Z,17.17
2019-04-06T21:55:36.861Z,18.07
2019-04-06T21:58:05.827Z,16.93
2019-04-06T22:00:36.592Z,17.10
2019-04-06T22:03:06.136Z,17.02
2019-04-06T22:05:36.297Z,17.27
2019-04-06T22:08:05.144Z,17.10
2019-04-06T22:10:34.297Z,17.90
2019-04-06T22:13:03.871Z,17.60
2019-04-06T22:15:32.717Z,17.37
2019-04-06T22:18:01.465Z,17.17
2019-04-06T22:20:30.816Z,18.00
2019-04-06T22:22:59.800Z,18.73
2019-04-06T22:25:28.978Z,18.50
2019-04-06T22:27:57.701Z,18.57
2019-04-06T22:30:26.834Z,18.48
2019-04-06T22:32:56.108Z,19.62
2019-04-06T22:35:25.003Z,18.80
2019-04-06T22:37:55.374Z,18.42
2019-04-06T22:40:24.682Z,19.23
2019-04-06T22:42:53.429Z,19.45
2019-04-06T22:45:24.198Z,20.00
2019-04-06T22:47:53.116Z,17.82
2019-04-06T22:50:23.624Z,17.80
2019-04-06T22:52:52.555Z,17.32
2019-04-06T22:55:21.487Z,17.35
2019-04-06T22:57:50.473Z,16.77
2019-04-06T23:00:39.838Z,17.37
2019-04-06T23:03:15.989Z,16.75
2019-04-06T23:05:51.941Z,14.93
2019-04-06T23:08:21.224Z,14.75
2019-04-06T23:10:50.468Z,16.00
2019-04-06T23:13:19.262Z,15.60
2019-04-06T23:15:48.796Z,14.53
2019-04-06T23:18:17.617Z,14.07
2019-04-06T23:20:46.412Z,14.95
2019-04-06T23:23:15.416Z,14.45
2019-04-06T23:25:47.234Z,15.32
2019-04-06T23:28:16.011Z,15.60
2019-04-06T23:30:45.254Z,15.28
2019-04-06T23:33:14.287Z,15.00
2019-04-06T23:35:43.176Z,15.32
2019-04-06T23:38:12.297Z,15.88
2019-04-06T23:40:41.063Z,14.83
2019-04-06T23:43:09.806Z,15.13
2019-04-06T23:45:39.386Z,15.08
2019-04-06T23:48:08.226Z,16.45
2019-04-06T23:50:37.037Z,15.63
2019-04-06T23:53:05.847Z,16.70
2019-04-06T23:55:35.332Z,15.18
2019-04-06T23:58:04.296Z,16.35
